Time;durP1;ratioP1;P1;durP2;ratioP2;P2;SDS_P1;SDS_P2;PMS_P1;PMS_P2;Temp;Humidity;BMP_temperature;BMP_pressure;BME280_temperature;BME280_humidity;BME280_pressure;Samples;Min_cycle;Max_cycle;Signal;HPM_P1;HPM_P2
2022/06/07 00:02:42;;;;;;;0.32;0.32;;;;;;;19.60;57.02;96727.94;10408600;28;20052;-21
2022/06/07 00:07:43;;;;;;;0.50;0.50;;;;;;;19.61;57.65;96729.63;10450357;28;20040;-23
2022/06/07 00:12:43;;;;;;;0.70;0.20;;;;;;;19.84;57.69;96732.09;10426782;28;20049;-21
2022/06/07 00:17:45;;;;;;;0.20;0.20;;;;;;;19.93;56.59;96726.97;10408952;28;20040;-21
2022/06/07 00:22:45;;;;;;;0.20;0.20;;;;;;;19.77;56.80;96725.34;10433541;28;20033;-21
2022/06/07 00:27:46;;;;;;;0.30;0.30;;;;;;;19.70;56.76;96726.22;10426341;28;20025;-21
2022/06/07 00:32:47;;;;;;;0.40;0.40;;;;;;;19.66;56.89;96711.88;10418443;28;20116;-22
2022/06/07 00:37:48;;;;;;;0.20;0.20;;;;;;;19.64;56.80;96721.16;10407890;28;20037;-21
2022/06/07 00:42:49;;;;;;;0.40;0.40;;;;;;;19.62;56.90;96718.66;10430804;28;20033;-20
2022/06/07 00:47:49;;;;;;;0.30;0.30;;;;;;;19.62;56.99;96705.09;10448419;28;20511;-21
2022/06/07 00:52:49;;;;;;;0.40;0.40;;;;;;;19.61;56.90;96706.78;10475547;28;20040;-22
2022/06/07 00:57:52;;;;;;;0.32;0.30;;;;;;;19.61;57.04;96698.34;10449893;28;20083;-22
2022/06/07 01:03:22;;;;;;;0.40;0.40;;;;;;;19.60;57.04;96696.66;10412795;28;20033;-21
2022/06/07 01:13:47;;;;;;;0.10;0.10;;;;;;;19.86;57.28;96677.03;10423040;28;20033;-21
2022/06/07 01:18:52;;;;;;;0.22;0.22;;;;;;;19.78;56.71;96676.22;10413821;28;20121;-21
2022/06/07 01:23:58;;;;;;;0.30;0.30;;;;;;;19.70;56.78;96675.44;10413668;28;20570;-21
2022/06/07 01:29:04;;;;;;;0.20;0.20;;;;;;;19.65;56.85;96664.44;10413394;28;20508;-22
2022/06/07 01:34:05;;;;;;;0.30;0.30;;;;;;;19.64;56.91;96662.75;10425008;28;20029;-22
2022/06/07 01:44:35;;;;;;;0.30;0.30;;;;;;;19.60;56.79;96656.84;10414770;28;20029;-23
2022/06/07 01:49:37;;;;;;;0.20;0.20;;;;;;;19.61;56.92;96652.63;10413442;28;20048;-22
2022/06/07 01:54:37;;;;;;;0.20;0.20;;;;;;;19.61;56.73;96650.91;10491215;28;20467;-21
2022/06/07 01:59:40;;;;;;;0.28;0.28;;;;;;;19.61;56.90;96648.38;10418208;28;20049;-21
2022/06/07 02:04:48;;;;;;;0.13;0.13;;;;;;;19.73;58.02;96632.22;10411659;28;20116;-22
2022/06/07 02:09:50;;;;;;;0.20;0.20;;;;;;;19.92;57.85;96638.88;10412165;28;20510;-21
2022/06/07 02:14:52;;;;;;;0.10;0.10;;;;;;;19.78;57.20;96620.34;10411991;28;20033;-21
2022/06/07 02:19:53;;;;;;;0.40;0.30;;;;;;;19.69;56.83;96618.69;10413428;28;20026;-21
2022/06/07 02:24:53;;;;;;;0.50;0.20;;;;;;;19.66;56.91;96612.81;10411243;28;20037;-26
2022/06/07 02:29:54;;;;;;;0.20;0.20;;;;;;;19.62;56.92;96606.91;10411530;28;20034;-22
2022/06/07 02:34:57;;;;;;;0.30;0.30;;;;;;;19.63;56.99;96612.81;10439505;28;20506;-23
2022/06/07 02:39:58;;;;;;;0.30;0.30;;;;;;;19.63;56.88;96605.19;10452550;28;20083;-22
2022/06/07 02:44:59;;;;;;;0.40;0.40;;;;;;;19.61;56.84;96606.91;10412407;28;20554;-21
2022/06/07 02:49:59;;;;;;;0.45;0.45;;;;;;;19.62;56.77;96600.97;10412298;28;20492;-21
2022/06/07 02:55:00;;;;;;;0.20;0.20;;;;;;;19.60;56.90;96589.97;10491211;28;20033;-21
2022/06/07 03:00:03;;;;;;;0.20;0.20;;;;;;;19.68;58.65;96588.25;10427790;28;20037;-22
2022/06/07 03:05:05;;;;;;;0.13;0.13;;;;;;;19.91;57.31;96604.16;10409736;28;20021;-23
2022/06/07 03:10:09;;;;;;;0.20;0.20;;;;;;;19.81;57.37;96605.91;10409960;28;20025;-22
2022/06/07 03:15:12;;;;;;;0.10;0.10;;;;;;;19.72;56.82;96605.13;10450197;28;20029;-22
2022/06/07 03:20:13;;;;;;;0.20;0.20;;;;;;;19.67;56.92;96606.88;10444554;28;20045;-22
2022/06/07 03:25:15;;;;;;;0.30;0.30;;;;;;;19.64;56.79;96605.19;10409089;28;20036;-22
2022/06/07 03:30:16;;;;;;;0.20;0.20;;;;;;;19.57;56.85;96595.91;10409363;28;20503;-23
2022/06/07 03:35:19;;;;;;;0.20;0.20;;;;;;;19.62;56.84;96619.59;10427734;28;20040;-21
2022/06/07 03:45:40;;;;;;;0.30;0.30;;;;;;;19.61;56.81;96622.13;10451202;28;20037;-21
2022/06/07 03:50:45;;;;;;;0.35;0.35;;;;;;;19.61;56.86;96627.22;10451242;28;20109;-23
2022/06/07 03:55:47;;;;;;;0.20;0.20;;;;;;;19.68;58.40;96634.78;10482052;28;20556;-21
2022/06/07 04:00:51;;;;;;;0.20;0.20;;;;;;;19.89;57.47;96636.34;10449630;28;20487;-23
2022/06/07 04:05:54;;;;;;;0.20;0.20;;;;;;;19.84;57.00;96635.56;10424305;28;20492;-21
2022/06/07 04:11:02;;;;;;;0.10;0.10;;;;;;;19.71;57.07;96644.09;10407985;28;20492;-22
2022/06/07 04:16:16;;;;;;;0.30;0.20;;;;;;;19.62;56.78;96631.44;10407297;28;20473;-22
2022/06/07 04:21:23;;;;;;;0.40;0.40;;;;;;;19.65;56.76;96639.03;10407313;28;20136;-22
2022/06/07 04:26:26;;;;;;;0.30;0.20;;;;;;;19.62;56.88;96652.63;10405875;28;20048;-21
2022/06/07 04:31:29;;;;;;;0.20;0.20;;;;;;;19.63;56.87;96666.16;10407805;28;20112;-21
2022/06/07 04:36:38;;;;;;;0.40;0.40;;;;;;;19.61;56.93;96663.59;10422789;28;20072;-22
2022/06/07 04:41:40;;;;;;;0.30;0.30;;;;;;;19.60;56.93;96661.91;10407092;28;20508;-22
2022/06/07 04:46:44;;;;;;;0.20;0.20;;;;;;;19.61;56.87;96667.84;10406831;28;20450;-20
2022/06/07 04:51:46;;;;;;;0.77;0.47;;;;;;;19.67;58.56;96667.84;10437004;28;20090;-21
2022/06/07 04:57:02;;;;;;;0.20;0.20;;;;;;;19.88;57.31;96667.69;10454035;28;20033;-22
2022/06/07 05:02:03;;;;;;;0.20;0.20;;;;;;;19.85;57.19;96662.63;10406653;28;20044;-21
2022/06/07 05:07:05;;;;;;;0.60;0.38;;;;;;;19.72;56.56;96666.94;10405672;28;20120;-22
2022/06/07 05:12:22;;;;;;;0.30;0.30;;;;;;;19.67;56.73;96667.84;10406148;28;20068;-21
2022/06/07 05:17:25;;;;;;;0.28;0.28;;;;;;;19.65;56.73;96688.16;10422793;28;20183;-22
2022/06/07 05:22:30;;;;;;;0.30;0.30;;;;;;;19.63;57.00;96681.38;10405659;28;20056;-21
2022/06/07 05:27:38;;;;;;;0.30;0.30;;;;;;;19.62;57.01;96687.31;10405729;28;20456;-21
2022/06/07 05:32:42;;;;;;;0.60;0.40;;;;;;;19.61;56.82;96683.09;10433681;28;20045;-22
2022/06/07 05:37:46;;;;;;;0.20;0.20;;;;;;;19.59;56.63;96678.00;10448720;28;20442;-21
2022/06/07 05:42:53;;;;;;;0.30;0.30;;;;;;;19.60;57.04;96691.56;10430304;28;20503;-21
2022/06/07 05:48:03;;;;;;;0.25;0.25;;;;;;;19.62;58.10;96689.84;10414299;28;20030;-24
2022/06/07 05:53:08;;;;;;;0.20;0.20;;;;;;;19.84;57.70;96687.19;10480534;28;20062;-21
2022/06/07 05:58:09;;;;;;;0.30;0.30;;;;;;;19.83;56.85;96682.13;10441794;28;20101;-21
2022/06/07 06:03:10;;;;;;;0.20;0.20;;;;;;;19.72;56.94;96688.94;10414124;28;20108;-21
2022/06/07 06:13:35;;;;;;;0.30;0.20;;;;;;;19.64;56.75;96693.22;10409029;28;20377;-21
2022/06/07 06:18:38;;;;;;;0.30;0.25;;;;;;;19.63;56.94;96706.78;10412597;28;20524;-22
2022/06/07 06:23:39;;;;;;;0.20;0.20;;;;;;;19.61;56.74;96698.34;10413636;28;20033;-21
2022/06/07 06:28:39;;;;;;;0.15;0.15;;;;;;;19.61;56.85;96693.25;10411674;28;20025;-21
2022/06/07 06:33:46;;;;;;;0.32;0.30;;;;;;;19.58;56.76;96694.09;10430492;28;20506;-24
2022/06/07 06:38:47;;;;;;;0.28;0.28;;;;;;;19.59;56.81;96707.66;10417005;28;20120;-22
2022/06/07 06:43:50;;;;;;;0.20;0.20;;;;;;;19.61;57.34;96708.50;10410409;28;20507;-21
2022/06/07 06:49:14;;;;;;;0.20;0.20;;;;;;;19.84;57.38;96711.78;10409407;28;20060;-21
2022/06/07 06:54:16;;;;;;;0.10;0.10;;;;;;;19.87;56.73;96714.28;10483878;28;20043;-22
2022/06/07 06:59:27;;;;;;;0.20;0.20;;;;;;;19.71;56.54;96720.28;10419306;28;20029;-20
2022/06/07 07:04:31;;;;;;;;;;;;;;;19.67;56.91;96723.72;10410599;28;20037;-21
2022/06/07 07:09:34;;;;;;;0.20;0.20;;;;;;;19.63;56.79;96732.19;10410512;28;19919;-22
2022/06/07 07:14:39;;;;;;;0.20;0.20;;;;;;;19.59;56.81;96725.44;10409451;28;20288;-21
2022/06/07 07:19:42;;;;;;;0.20;0.20;;;;;;;19.59;56.73;96718.66;10409631;28;20037;-21
2022/06/07 07:24:46;;;;;;;0.25;0.25;;;;;;;19.59;56.67;96707.66;10409711;28;20033;-22
2022/06/07 07:29:49;;;;;;;0.30;0.30;;;;;;;19.58;56.77;96709.34;10409584;28;20033;-21
2022/06/07 07:34:55;;;;;;;0.20;0.20;;;;;;;19.59;56.89;96710.19;10418062;28;20451;-21
2022/06/07 07:39:56;;;;;;;0.30;0.30;;;;;;;19.60;57.17;96696.66;10409559;28;20045;-22
2022/06/07 07:44:59;;;;;;;0.20;0.20;;;;;;;19.81;57.46;96701.59;10450943;28;20029;-21
2022/06/07 07:50:02;;;;;;;0.10;0.10;;;;;;;19.91;56.45;96693.09;10431604;28;20037;-21
2022/06/07 07:55:05;;;;;;;0.00;0.00;;;;;;;19.77;56.58;96694.88;10488196;28;20466;-21
2022/06/07 08:00:06;;;;;;;0.20;0.20;;;;;;;19.68;56.53;96689.84;10451196;28;20033;-22
2022/06/07 08:05:13;;;;;;;0.20;0.20;;;;;;;19.65;56.64;96684.75;10433430;28;20043;-22
2022/06/07 08:10:14;;;;;;;0.20;0.20;;;;;;;19.59;56.57;96684.81;10408879;28;20407;-21
2022/06/07 08:15:15;;;;;;;0.30;0.30;;;;;;;19.60;56.85;96683.94;10449974;28;20045;-22
2022/06/07 08:20:16;;;;;;;0.10;0.10;;;;;;;19.59;56.81;96679.72;10430690;28;20513;-21
2022/06/07 08:25:17;;;;;;;0.20;0.20;;;;;;;19.58;56.76;96673.78;10408490;28;20034;-21
2022/06/07 08:30:18;;;;;;;0.10;0.10;;;;;;;19.58;56.69;96673.78;10408805;28;20113;-23
2022/06/07 08:40:43;;;;;;;0.30;0.30;;;;;;;19.73;57.81;96688.09;10408585;28;20559;-22
2022/06/07 08:45:46;;;;;;;0.28;0.28;;;;;;;19.90;57.16;96683.75;10408421;28;20088;-21
2022/06/07 08:51:05;;;;;;;0.17;0.17;;;;;;;19.79;56.96;96683.84;10422666;28;20021;-21
2022/06/07 08:56:13;;;;;;;0.20;0.20;;;;;;;19.70;56.74;96675.44;10470744;28;20105;-21
2022/06/07 09:01:40;;;;;;;0.10;0.10;;;;;;;19.58;56.76;96655.19;10408406;28;20049;-21
2022/06/07 09:06:46;;;;;;;0.30;0.30;;;;;;;19.59;56.77;96659.41;10406167;28;20558;-21
2022/06/07 09:17:21;;;;;;;0.40;0.30;;;;;;;19.60;56.92;96659.38;10415749;28;20045;-20
2022/06/07 09:22:43;;;;;;;0.20;0.20;;;;;;;19.61;56.70;96666.13;10453565;28;20044;-22
2022/06/07 09:27:48;;;;;;;0.30;0.30;;;;;;;19.59;57.02;96656.88;10432792;28;20041;-20
2022/06/07 09:32:51;;;;;;;0.50;0.35;;;;;;;19.58;56.89;96658.56;10426371;28;20044;-22
2022/06/07 09:37:56;;;;;;;0.10;0.10;;;;;;;19.72;57.79;96643.22;10456530;28;20091;-21
2022/06/07 09:43:11;;;;;;;0.10;0.10;;;;;;;19.84;57.00;96630.47;10431315;28;20484;-22
2022/06/07 09:48:30;;;;;;;0.10;0.10;;;;;;;19.79;56.81;96643.19;10414786;28;20044;-21
2022/06/07 09:53:36;;;;;;;0.10;0.10;;;;;;;19.66;56.75;96641.56;10473776;28;20067;-21
2022/06/07 09:58:57;;;;;;;0.20;0.20;;;;;;;19.65;56.77;96633.94;10435735;28;20037;-23
2022/06/07 10:04:19;;;;;;;0.20;0.20;;;;;;;19.63;57.17;96633.97;10414094;28;20840;-21
2022/06/07 10:09:34;;;;;;;0.15;0.15;;;;;;;19.60;56.82;96615.38;10413956;28;20104;-22
2022/06/07 10:15:02;;;;;;;0.20;0.20;;;;;;;19.61;56.92;96611.97;10413405;28;20419;-22
2022/06/07 10:20:24;;;;;;;0.22;0.22;;;;;;;19.59;56.66;96604.38;10420640;28;20423;-22
2022/06/07 10:25:33;;;;;;;0.20;0.20;;;;;;;19.59;56.83;96601.00;10449886;28;20403;-21
2022/06/07 10:30:59;;;;;;;0.20;0.20;;;;;;;19.60;56.92;96607.75;10413570;28;20040;-21
2022/06/07 10:36:24;;;;;;;0.23;0.23;;;;;;;19.81;57.75;96599.97;10427404;28;20518;-21
2022/06/07 10:41:58;;;;;;;0.10;0.10;;;;;;;19.93;56.37;96590.56;10423922;28;20479;-21
2022/06/07 10:47:10;;;;;;;0.10;0.10;;;;;;;19.66;56.62;96572.16;10454279;28;20170;-21
2022/06/07 10:52:33;;;;;;;0.10;0.10;;;;;;;19.68;56.80;96581.44;10455632;28;20063;-21
2022/06/07 10:57:57;;;;;;;0.17;0.17;;;;;;;19.66;56.90;96585.69;10450468;28;20045;-22
2022/06/07 11:03:34;;;;;;;0.30;0.30;;;;;;;19.63;56.70;96580.66;10412114;28;20040;-22
2022/06/07 11:14:35;;;;;;;0.10;0.10;;;;;;;19.61;56.85;96577.25;10416212;28;20449;-21
2022/06/07 11:19:36;;;;;;;0.17;0.17;;;;;;;19.61;57.03;96571.34;10411083;28;20763;-22
2022/06/07 11:24:56;;;;;;;0.22;0.20;;;;;;;19.61;56.95;96562.00;10411273;28;20083;-22
2022/06/07 11:30:24;;;;;;;0.20;0.20;;;;;;;19.64;59.23;96545.91;10410909;28;20037;-21
2022/06/07 11:35:48;;;;;;;0.20;0.20;;;;;;;19.83;57.47;96543.22;10431690;28;20504;-21
2022/06/07 11:40:49;;;;;;;0.03;0.03;;;;;;;19.86;56.94;96552.53;10416862;28;20040;-22
2022/06/07 11:45:53;;;;;;;0.20;0.20;;;;;;;19.73;56.76;96535.69;10451537;28;20036;-21
2022/06/07 11:51:12;;;;;;;0.15;0.15;;;;;;;19.68;56.79;96532.34;10439628;28;20494;-22
2022/06/07 11:56:30;;;;;;;0.17;0.17;;;;;;;19.59;56.79;96518.00;10471267;28;20072;-22
2022/06/07 12:01:45;;;;;;;0.20;0.20;;;;;;;19.49;56.81;96505.44;10409166;28;20106;-21
2022/06/07 12:06:46;;;;;;;0.30;0.30;;;;;;;19.63;56.90;96526.47;10409443;28;20044;-21
2022/06/07 12:11:47;;;;;;;0.10;0.10;;;;;;;19.63;56.97;96517.16;10409770;28;20040;-21
2022/06/07 12:17:03;;;;;;;0.20;0.20;;;;;;;19.63;56.90;96508.69;10409369;28;20044;-21
2022/06/07 12:22:06;;;;;;;0.10;0.10;;;;;;;19.64;57.02;96500.22;10408558;28;20033;-21
2022/06/07 12:27:24;;;;;;;0.50;0.30;;;;;;;19.70;58.61;96492.53;10425166;28;20453;-22
2022/06/07 12:32:31;;;;;;;0.20;0.20;;;;;;;19.93;57.56;96493.19;10449323;28;20041;-21
2022/06/07 12:37:34;;;;;;;0.10;0.10;;;;;;;19.85;57.19;96485.63;10410597;28;20504;-21
2022/06/07 12:42:45;;;;;;;0.20;0.20;;;;;;;19.75;57.02;96489.09;10408258;28;20099;-21
2022/06/07 12:47:53;;;;;;;0.10;0.10;;;;;;;19.70;56.79;96474.75;10411241;28;20033;-21
2022/06/07 12:52:55;;;;;;;0.20;0.20;;;;;;;19.67;57.21;96475.63;10465748;28;20048;-22
2022/06/07 12:57:58;;;;;;;0.20;0.20;;;;;;;19.67;56.89;96472.25;10449160;28;20033;-21
2022/06/07 13:03:06;;;;;;;0.20;0.20;;;;;;;19.65;56.98;96471.41;10417373;28;20531;-21
2022/06/07 13:08:20;;;;;;;0.10;0.10;;;;;;;19.65;56.96;96467.19;10457531;28;20033;-23
2022/06/07 13:13:29;;;;;;;0.20;0.20;;;;;;;19.64;56.96;96488.38;10429108;28;20431;-21
2022/06/07 13:18:38;;;;;;;0.10;0.10;;;;;;;19.66;57.12;96503.59;10415944;28;20477;-21
2022/06/07 13:23:41;;;;;;;0.20;0.20;;;;;;;19.75;58.25;96500.97;10416199;28;20033;-22
2022/06/07 13:28:44;;;;;;;0.15;0.15;;;;;;;19.93;57.66;96513.53;10415780;28;20029;-21
2022/06/07 13:34:00;;;;;;;0.10;0.10;;;;;;;19.86;57.36;96516.97;10433842;28;20044;-23
2022/06/07 13:39:00;;;;;;;0.10;0.10;;;;;;;19.74;56.91;96524.66;10415447;28;20092;-20
2022/06/07 13:44:42;;;;;;;0.20;0.20;;;;;;;19.69;56.93;96534.03;10414813;28;20091;-21
2022/06/07 13:55:52;;;;;;;0.20;0.15;;;;;;;19.65;56.90;96517.13;10414236;28;20033;-22
2022/06/07 14:01:00;;;;;;;0.20;0.20;;;;;;;19.63;56.96;96516.31;10414260;28;20033;-22
2022/06/07 14:06:01;;;;;;;0.20;0.20;;;;;;;19.62;56.81;96529.84;10413877;28;20025;-21
2022/06/07 14:11:02;;;;;;;0.20;0.20;;;;;;;19.61;56.96;96510.41;10414024;28;20488;-22
2022/06/07 14:16:03;;;;;;;0.05;0.05;;;;;;;19.61;56.99;96505.31;10413514;28;20041;-22
2022/06/07 14:21:04;;;;;;;0.10;0.10;;;;;;;19.76;57.90;96505.19;10413405;28;20067;-22
2022/06/07 14:26:04;;;;;;;0.17;0.17;;;;;;;19.90;57.43;96488.13;10421677;28;20039;-25
2022/06/07 14:31:10;;;;;;;0.00;0.00;;;;;;;19.85;56.96;96490.69;10454590;28;20058;-21
2022/06/07 14:36:12;;;;;;;0.20;0.20;;;;;;;19.74;56.90;96476.41;10439311;28;20387;-21
2022/06/07 14:41:12;;;;;;;0.10;0.10;;;;;;;19.68;56.83;96461.25;10412731;28;20484;-23
2022/06/07 14:46:18;;;;;;;0.10;0.10;;;;;;;19.65;56.78;96467.19;10413058;28;20033;-21
2022/06/07 14:51:33;;;;;;;0.25;0.22;;;;;;;19.62;56.96;96459.59;10435742;28;20123;-21
2022/06/07 14:56:35;;;;;;;0.25;0.25;;;;;;;19.61;56.89;96460.44;10467427;28;20038;-21
2022/06/07 15:01:48;;;;;;;0.10;0.10;;;;;;;19.61;56.90;96446.91;10412272;28;20033;-21
2022/06/07 15:06:48;;;;;;;0.10;0.10;;;;;;;19.62;56.95;96479.91;10411093;28;20109;-21
2022/06/07 15:11:50;;;;;;;0.25;0.25;;;;;;;19.63;56.91;96513.75;10410175;28;20029;-22
2022/06/07 15:16:53;;;;;;;0.20;0.20;;;;;;;19.72;59.36;96549.25;10410689;28;20095;-21
2022/06/07 15:21:54;;;;;;;0.28;0.28;;;;;;;19.91;57.62;96500.00;10411645;28;20067;-21
2022/06/07 15:26:55;;;;;;;0.20;0.20;;;;;;;19.87;57.24;96528.81;10410866;28;20033;-21
2022/06/07 15:32:13;;;;;;;0.10;0.10;;;;;;;19.76;56.82;96582.22;10414895;28;20120;-21
2022/06/07 15:37:15;;;;;;;0.30;0.20;;;;;;;19.70;57.03;96596.69;10415650;28;20108;-23
2022/06/07 15:47:38;;;;;;;0.20;0.20;;;;;;;19.63;57.04;96592.50;10410267;28;20137;-21
2022/06/07 15:52:40;;;;;;;0.15;0.13;;;;;;;19.63;56.95;96597.56;10454438;28;20037;-21
2022/06/07 16:03:01;;;;;;;0.20;0.20;;;;;;;19.63;57.19;96595.03;10410015;28;20045;-21
2022/06/07 16:08:05;;;;;;;0.20;0.20;;;;;;;19.62;56.92;96584.03;10409511;28;20061;-21
2022/06/07 16:13:07;;;;;;;0.20;0.20;;;;;;;19.69;58.73;96574.69;10409120;28;20113;-22
2022/06/07 16:18:08;;;;;;;0.22;0.22;;;;;;;19.90;57.66;96580.44;10408291;28;20125;-22
2022/06/07 16:23:08;;;;;;;0.20;0.20;;;;;;;19.91;56.60;96578.75;10408979;28;20120;-21
2022/06/07 16:33:36;;;;;;;0.20;0.15;;;;;;;19.70;57.02;96566.19;10426516;28;20033;-21
2022/06/07 16:38:40;;;;;;;0.20;0.20;;;;;;;19.66;56.92;96550.13;10409810;28;20069;-20
2022/06/07 16:49:03;;;;;;;0.25;0.10;;;;;;;19.63;56.96;96541.69;10448975;28;20094;-22
2022/06/07 16:54:04;;;;;;;0.13;0.13;;;;;;;19.62;56.73;96533.25;10477006;28;20135;-21
2022/06/07 16:59:07;;;;;;;0.10;0.10;;;;;;;19.63;56.85;96539.16;10455001;28;20037;-21
2022/06/07 17:04:12;;;;;;;0.15;0.15;;;;;;;19.62;56.73;96543.41;10440388;28;20529;-21
2022/06/07 17:09:20;;;;;;;0.17;0.17;;;;;;;19.57;57.29;96534.13;10408015;28;20480;-21
2022/06/07 17:14:21;;;;;;;0.20;0.20;;;;;;;19.85;57.86;96541.50;10407493;28;20058;-21
2022/06/07 17:19:23;;;;;;;0.00;0.00;;;;;;;19.94;56.69;96543.16;10420547;28;20308;-21
2022/06/07 17:24:23;;;;;;;0.10;0.10;;;;;;;19.78;56.80;96542.44;10448966;28;20395;-21
2022/06/07 17:29:23;;;;;;;0.20;0.20;;;;;;;19.71;56.71;96542.47;10411735;28;20032;-21
2022/06/07 17:34:24;;;;;;;0.20;0.20;;;;;;;19.67;56.92;96536.59;10436399;28;20283;-21
2022/06/07 17:39:24;;;;;;;0.17;0.17;;;;;;;19.64;56.66;96533.22;10416910;28;20045;-21
2022/06/07 17:44:25;;;;;;;0.30;0.30;;;;;;;19.58;56.83;96521.41;10450190;28;20589;-21
2022/06/07 17:49:27;;;;;;;0.20;0.20;;;;;;;19.56;56.91;96523.13;10451532;28;20033;-21
2022/06/07 17:54:27;;;;;;;0.20;0.20;;;;;;;19.63;56.92;96523.91;10489486;28;20036;-21
2022/06/07 17:59:27;;;;;;;0.20;0.20;;;;;;;19.61;57.02;96534.06;10421941;28;20037;-21
2022/06/07 18:04:28;;;;;;;0.00;0.00;;;;;;;19.61;56.97;96529.00;10416632;28;20307;-22
2022/06/07 18:09:28;;;;;;;0.10;0.10;;;;;;;19.76;58.10;96525.53;10455426;28;20275;-21
2022/06/07 18:14:29;;;;;;;0.20;0.20;;;;;;;19.93;57.57;96532.13;10417597;28;20041;-20
2022/06/07 18:19:29;;;;;;;0.00;0.00;;;;;;;19.80;57.08;96528.03;10413301;28;20044;-22
2022/06/07 18:24:30;;;;;;;0.10;0.10;;;;;;;19.72;56.88;96528.94;10413117;28;20488;-22
2022/06/07 18:29:30;;;;;;;0.20;0.20;;;;;;;19.67;56.85;96533.22;10413498;28;20021;-22
2022/06/07 18:34:31;;;;;;;0.17;0.17;;;;;;;19.65;56.95;96523.06;10437532;28;20039;-23
2022/06/07 18:39:32;;;;;;;0.10;0.10;;;;;;;19.64;56.91;96525.59;10412827;28;20068;-24
2022/06/07 18:44:32;;;;;;;0.10;0.10;;;;;;;19.62;56.72;96527.31;10411455;28;20518;-21
2022/06/07 18:49:33;;;;;;;0.30;0.13;;;;;;;19.63;56.88;96534.06;10412629;28;20118;-21
2022/06/07 18:54:34;;;;;;;0.40;0.30;;;;;;;19.62;56.84;96527.31;10488725;28;20037;-22
2022/06/07 18:59:35;;;;;;;0.20;0.20;;;;;;;19.62;56.91;96540.00;10454741;28;20071;-21
2022/06/07 19:04:36;;;;;;;0.10;0.10;;;;;;;19.67;58.97;96541.66;10452485;28;20095;-21
2022/06/07 19:09:43;;;;;;;0.10;0.10;;;;;;;19.90;57.59;96554.19;10413372;28;20104;-21
2022/06/07 19:14:44;;;;;;;0.10;0.10;;;;;;;19.91;56.80;96555.91;10410812;28;20041;-22
2022/06/07 19:19:44;;;;;;;0.20;0.10;;;;;;;19.77;57.12;96562.75;10410976;28;20034;-23
2022/06/07 19:24:44;;;;;;;0.23;0.17;;;;;;;19.71;56.99;96561.13;10410633;28;20041;-21
2022/06/07 19:29:45;;;;;;;0.30;0.20;;;;;;;19.66;56.95;96569.63;10449230;28;20048;-21
2022/06/07 19:34:45;;;;;;;0.30;0.27;;;;;;;19.64;56.90;96567.09;10451028;28;20172;-20
2022/06/07 19:39:46;;;;;;;0.10;0.10;;;;;;;19.64;56.78;96571.31;10452082;28;20454;-21
2022/06/07 19:44:46;;;;;;;0.23;0.10;;;;;;;19.63;56.90;96577.25;10412260;28;20295;-21
2022/06/07 19:49:47;;;;;;;0.20;0.20;;;;;;;19.62;56.91;96583.19;10410104;28;20284;-22
2022/06/07 19:54:47;;;;;;;0.30;0.20;;;;;;;19.58;56.90;96579.81;10490034;28;20032;-22
2022/06/07 19:59:47;;;;;;;0.20;0.20;;;;;;;19.63;56.71;96592.50;10412525;28;20507;-22
2022/06/07 20:04:48;;;;;;;0.30;0.20;;;;;;;19.81;57.75;96594.91;10409729;28;20033;-21
2022/06/07 20:09:48;;;;;;;0.10;0.10;;;;;;;19.95;57.39;96593.13;10410123;28;20296;-21
2022/06/07 20:14:49;;;;;;;0.20;0.20;;;;;;;19.81;56.90;96595.75;10447900;28;20514;-21
2022/06/07 20:19:49;;;;;;;0.00;0.00;;;;;;;19.72;56.74;96593.28;10449577;28;20365;-22
2022/06/07 20:24:49;;;;;;;0.30;0.30;;;;;;;19.67;56.81;96591.63;10409144;28;20044;-21
2022/06/07 20:29:50;;;;;;;0.20;0.20;;;;;;;19.65;56.91;96598.41;10447714;28;20025;-21
2022/06/07 20:34:50;;;;;;;0.55;0.20;;;;;;;19.64;56.97;96596.72;10441498;28;20299;-21
2022/06/07 20:39:51;;;;;;;0.17;0.17;;;;;;;19.64;56.89;96601.78;10408696;28;20051;-21
2022/06/07 20:44:51;;;;;;;0.13;0.13;;;;;;;19.59;56.73;96601.81;10408441;28;20662;-22
2022/06/07 20:49:52;;;;;;;0.20;0.20;;;;;;;19.62;56.81;96603.50;10408678;28;20543;-21
2022/06/07 20:54:52;;;;;;;0.20;0.20;;;;;;;19.62;56.92;96603.50;10490171;28;20041;-22
2022/06/07 20:59:53;;;;;;;0.20;0.20;;;;;;;19.68;58.47;96593.31;10409925;28;20071;-21
2022/06/07 21:04:54;;;;;;;0.10;0.10;;;;;;;19.88;57.57;96599.94;10407807;28;20204;-21
2022/06/07 21:09:54;;;;;;;0.20;0.20;;;;;;;19.86;57.32;96608.44;10413124;28;20666;-23
2022/06/07 21:14:55;;;;;;;0.30;0.30;;;;;;;19.75;56.89;96605.13;10416598;28;20041;-23
2022/06/07 21:19:55;;;;;;;0.10;0.10;;;;;;;19.68;56.81;96606.03;10417850;28;20750;-21
2022/06/07 21:24:56;;;;;;;0.10;0.10;;;;;;;19.65;56.85;96608.56;10456630;28;20280;-22
2022/06/07 21:29:56;;;;;;;0.10;0.10;;;;;;;19.64;56.96;96600.13;10415507;28;20296;-22
2022/06/07 21:34:56;;;;;;;0.47;0.10;;;;;;;19.63;56.87;96592.50;10430554;28;20500;-21
2022/06/07 21:39:57;;;;;;;0.10;0.10;;;;;;;19.62;56.80;96590.81;10415167;28;20038;-22
2022/06/07 21:44:57;;;;;;;0.10;0.10;;;;;;;19.62;56.69;96590.81;10414877;28;20315;-20
2022/06/07 21:49:59;;;;;;;0.20;0.20;;;;;;;19.61;56.79;96587.41;10420279;28;20028;-22
2022/06/07 21:54:59;;;;;;;0.20;0.20;;;;;;;19.61;57.05;96591.66;10498384;28;20290;-21
2022/06/07 22:00:00;;;;;;;0.10;0.10;;;;;;;19.82;58.21;96574.56;10457682;28;20041;-22
2022/06/07 22:05:01;;;;;;;0.40;0.17;;;;;;;19.92;57.00;96572.81;10443600;28;20038;-22
2022/06/07 22:10:03;;;;;;;0.10;0.10;;;;;;;19.75;56.76;96570.38;10416021;28;20057;-23
2022/06/07 22:15:07;;;;;;;0.10;0.10;;;;;;;19.69;56.89;96564.53;10457147;28;20425;-22
2022/06/07 22:20:08;;;;;;;0.10;0.10;;;;;;;19.64;56.94;96566.25;10452415;28;20029;-21
2022/06/07 22:25:09;;;;;;;0.40;0.13;;;;;;;19.63;57.01;96565.41;10416135;28;20124;-20
2022/06/07 22:30:13;;;;;;;0.10;0.10;;;;;;;19.63;57.01;96559.47;10455652;28;20063;-21
2022/06/07 22:35:16;;;;;;;0.10;0.10;;;;;;;19.62;56.79;96562.88;10439357;28;20040;-22
2022/06/07 22:40:19;;;;;;;0.10;0.10;;;;;;;19.61;56.88;96556.09;10414732;28;20120;-21
2022/06/07 22:45:24;;;;;;;0.20;0.20;;;;;;;19.61;56.78;96551.03;10414423;28;20029;-20
2022/06/07 22:50:28;;;;;;;0.10;0.10;;;;;;;19.57;57.11;96536.66;10422518;28;20029;-20
2022/06/07 22:55:35;;;;;;;0.10;0.10;;;;;;;19.74;57.93;96537.38;10488235;28;20033;-20
2022/06/07 23:00:38;;;;;;;0.20;0.20;;;;;;;19.91;57.61;96530.47;10414584;28;20033;-21
2022/06/07 23:05:40;;;;;;;0.13;0.10;;;;;;;19.79;57.11;96528.88;10413545;28;20037;-21
2022/06/07 23:10:40;;;;;;;0.10;0.10;;;;;;;19.72;56.84;96529.78;10414611;28;20040;-21
2022/06/07 23:21:00;;;;;;;0.30;0.30;;;;;;;19.64;56.97;96520.53;10413837;28;20033;-22
2022/06/07 23:26:00;;;;;;;0.30;0.30;;;;;;;19.63;56.79;96523.91;10413467;28;20036;-21
2022/06/07 23:31:00;;;;;;;0.10;0.10;;;;;;;19.61;56.89;96515.47;10412760;28;20090;-21
2022/06/07 23:36:01;;;;;;;0.20;0.20;;;;;;;19.60;56.78;96511.25;10448766;28;20037;-20
2022/06/07 23:41:01;;;;;;;0.17;0.17;;;;;;;19.58;56.80;96500.28;10445141;28;20037;-21
2022/06/07 23:46:02;;;;;;;0.20;0.20;;;;;;;19.59;57.04;96502.78;10413311;28;20083;-21
2022/06/07 23:51:03;;;;;;;0.20;0.20;;;;;;;19.61;58.23;96497.69;10431879;28;20119;-21
2022/06/07 23:56:04;;;;;;;0.10;0.10;;;;;;;19.82;57.70;96489.88;10476134;28;20045;-20
